Palmetto, Georgia
Current Conditions -  °F | °C
As of 1:49 PM on Sunday 23 Nov 2014 (Local Time) from KFFC Reporting Station
Light Rain Light Rain  
Wind Chill: 54°   Ceiling: 700
Heat Index: 54°   Visibility: 1.5mi
Dew Point: 54°   Wind: 10mph
Humidity: 100%   Direction: 90°E
Pressure: 29.79"   Gusts: NA
Location:  33.52°N, 84.67°W
Report Text: KFFC 231849Z AUTO 09009KT 1 1/2SM -RA BR BKN007 OVC014 12/12 A2979 RMK AO2 P0024
Loading
Personal Weather Stations






























Interactive Weather Map New forecast layout! Learn more

10-Day Weather Forecast

Advertisements
Track Severe Weather on mobile